Всё
Willow Point Airport (Our Town, AL) AL71 Погода
There is no TAF data available at AL71 or any nearby airports.
There is no METAR data available at AL71. Showing METAR data for KALX (8 mi С).
Недавняя история METAR для ALX (для AL71 данные отсутствуют)
| Date | Time (CDT) | Flight Rules | Wind Dir. | Speed | Type | Height AGL (ft) | Visibility | Temp (°C) | Temp (°F) | Dew Point (°C) | Dew Point (°F) | Rel. Humid. | Pressure | Density Altitude | Remarks |
|---|---|---|---|---|---|---|---|---|---|---|---|---|---|---|---|
| 02-сен | 02:55 | VFR | Calm | 10 miles | 23° | 73° | 23° | 73° | 100% | 30.06 in Hg | 1,505 ft | ||||
| 02-сен | 02:35 | VFR | 230° | 1 kt | 10 miles | 23° | 73° | 23° | 73° | 100% | 30.07 in Hg | 1,495 ft | |||
| 02-сен | 02:15 | VFR | Calm | 10 miles | 24° | 75° | 23° | 73° | 94% | 30.07 in Hg | 1,615 ft | ||||
| 02-сен | 01:55 | VFR | Calm | 10 miles | 24° | 75° | 23° | 73° | 94% | 30.07 in Hg | 1,615 ft | ||||
| 02-сен | 01:15 | VFR | 270° | 2 kt | 10 miles | 24° | 75° | 23° | 73° | 94% | 30.07 in Hg | 1,615 ft | |||
| 02-сен | 00:55 | VFR | Calm | 10 miles | 23° | 73° | 23° | 73° | 100% | 30.07 in Hg | 1,495 ft | ||||
| 02-сен | 00:35 | VFR | 60° | 1 kt | 10 miles | 24° | 75° | 23° | 73° | 94% | 30.07 in Hg | 1,615 ft | |||
| 02-сен | 00:15 | VFR | Calm | 10 miles | 24° | 75° | 23° | 73° | 94% | 30.07 in Hg | 1,615 ft | ||||
| 01-сен | 23:55 | VFR | 90° | 1 kt | 10 miles | 24° | 75° | 23° | 73° | 94% | 30.08 in Hg | 1,605 ft | |||
| 01-сен | 23:35 | VFR | 220° | 1 kt | 10 miles | 24° | 75° | 23° | 73° | 94% | 30.08 in Hg | 1,605 ft | |||
| 01-сен | 23:15 | VFR | 270° | 1 kt | 10 miles | 25° | 77° | 23° | 73° | 89% | 30.08 in Hg | 1,725 ft | |||
| 01-сен | 22:55 | VFR | 210° | 1 kt | 10 miles | 24° | 75° | 23° | 73° | 94% | 30.08 in Hg | 1,605 ft | |||
| 01-сен | 22:35 | VFR | Variable | 1 kt | 10 miles | 25° | 77° | 23° | 73° | 89% | 30.08 in Hg | 1,725 ft | |||
| 01-сен | 22:15 | VFR | Calm | 10 miles | 25° | 77° | 23° | 73° | 89% | 30.08 in Hg | 1,725 ft | ||||
| 01-сен | 21:55 | VFR | Calm | 10 miles | 25° | 77° | 23° | 73° | 89% | 30.08 in Hg | 1,725 ft | ||||
| 01-сен | 21:35 | VFR | Calm | 10 miles | 26° | 78° | 24° | 75° | 89% | 30.08 in Hg | 1,845 ft | ||||
| 01-сен | 21:15 | VFR | 310° | 1 kt | 10 miles | 26° | 78° | 23° | 73° | 84% | 30.07 in Hg | 1,855 ft | |||
| 01-сен | 20:55 | VFR | 290° | 1 kt | 10 miles | 26° | 78° | 23° | 73° | 84% | 30.07 in Hg | 1,855 ft | |||
| 01-сен | 20:35 | VFR | 260° | 1 kt | 10 miles | 27° | 80° | 23° | 73° | 79% | 30.06 in Hg | 1,985 ft | |||
| 01-сен | 20:15 | VFR | Calm | 10 miles | 27° | 80° | 24° | 75° | 84% | 30.05 in Hg | 1,995 ft | ||||
| 01-сен | 19:55 | VFR | Calm | 10 miles | 28° | 82° | 23° | 73° | 74% | 30.04 in Hg | 2,125 ft | ||||
| 01-сен | 19:15 | VFR | Calm | 10 miles | 30° | 86° | 23° | 73° | 66% | 30.04 in Hg | 2,365 ft | ||||
| 01-сен | 18:55 | VFR | 30° | 2 kt | 10 miles | 32° | 89° | 22° | 71° | 56% | 30.04 in Hg | 2,605 ft | |||
| 01-сен | 18:15 | VFR | Variable | 3 kt | 10 miles | 33° | 91° | 22° | 71° | 53% | 30.04 in Hg | 2,725 ft |
Вход
| Ваш браузер не поддерживается.. обновите веб-браузер |
